Time;durP1;ratioP1;P1;durP2;ratioP2;P2;SDS_P1;SDS_P2;PMS_P1;PMS_P2;Temp;Humidity;BMP_temperature;BMP_pressure;BME280_temperature;BME280_humidity;BME280_pressure;Samples;Min_cycle;Max_cycle;Signal;HPM_P1;HPM_P2
2023/01/30 00:01:46;;;;;;;24.37;12.67;;;;;;;;;;4983580;28;20458;-65
2023/01/30 00:04:12;;;;;;;21.37;11.73;;;;;;;;;;4988709;28;20461;-64
2023/01/30 00:06:42;;;;;;;14.50;8.43;;;;;;;;;;4998785;28;20531;-64
2023/01/30 00:09:11;;;;;;;18.00;9.77;;;;;;;;;;4989240;28;20456;-64
2023/01/30 00:11:38;;;;;;;18.43;9.53;;;;;;;;;;4964647;28;20481;-64
2023/01/30 00:14:22;;;;;;;15.33;7.80;;;;;;;;;;4968023;28;20452;-64
2023/01/30 00:16:50;;;;;;;20.50;10.93;;;;;;;;;;4962352;28;20528;-64
2023/01/30 00:19:35;;;;;;;17.07;10.00;;;;;;;;;;4966973;28;20482;-64
2023/01/30 00:22:01;;;;;;;20.23;10.27;;;;;;;;;;4981501;28;21211;-64
2023/01/30 00:24:28;;;;;;;18.37;10.30;;;;;;;;;;4983757;28;20228;-64
2023/01/30 00:26:55;;;;;;;18.73;9.70;;;;;;;;;;4981232;28;20462;-64
2023/01/30 00:29:21;;;;;;;13.57;7.40;;;;;;;;;;4982973;28;20461;-64
2023/01/30 00:32:06;;;;;;;12.23;7.73;;;;;;;;;;4967368;28;20217;-64
2023/01/30 00:34:32;;;;;;;20.37;11.33;;;;;;;;;;4963769;28;20530;-64
2023/01/30 00:36:59;;;;;;;14.60;8.27;;;;;;;;;;4968381;28;20456;-64
2023/01/30 00:39:34;;;;;;;18.47;10.63;;;;;;;;;;4982010;28;20941;-64
2023/01/30 00:47:31;;;;;;;17.57;11.13;;;;;;;;;;4962593;28;20248;-64
2023/01/30 00:49:57;;;;;;;12.47;6.93;;;;;;;;;;4967435;28;20452;-64
2023/01/30 00:52:24;;;;;;;16.07;9.77;;;;;;;;;;4964545;28;20582;-63
2023/01/30 00:54:51;;;;;;;19.07;10.47;;;;;;;;;;4980409;28;20893;-63
2023/01/30 00:57:18;;;;;;;14.47;7.63;;;;;;;;;;4984825;28;20534;-64
2023/01/30 00:59:44;;;;;;;19.60;11.27;;;;;;;;;;4986449;28;20526;-64
2023/01/30 01:02:11;;;;;;;12.73;6.73;;;;;;;;;;4983137;28;20554;-64
2023/01/30 01:04:42;;;;;;;14.20;7.77;;;;;;;;;;4984934;28;20467;-63
2023/01/30 01:07:10;;;;;;;17.67;8.70;;;;;;;;;;4983772;28;20532;-64
2023/01/30 01:09:36;;;;;;;21.83;10.97;;;;;;;;;;4968406;28;24465;-63
2023/01/30 01:12:03;;;;;;;11.57;7.10;;;;;;;;;;4984316;28;20458;-64
2023/01/30 01:14:30;;;;;;;18.57;9.27;;;;;;;;;;4962541;28;20467;-64
2023/01/30 01:16:57;;;;;;;12.10;7.47;;;;;;;;;;4967551;28;20467;-64
2023/01/30 01:19:25;;;;;;;18.70;10.33;;;;;;;;;;4960949;28;20804;-66
2023/01/30 01:21:51;;;;;;;17.73;9.37;;;;;;;;;;4967910;28;20475;-64
2023/01/30 01:24:35;;;;;;;23.53;13.70;;;;;;;;;;4965686;28;20469;-64
2023/01/30 01:27:02;;;;;;;23.10;12.47;;;;;;;;;;4962919;28;20475;-65
2023/01/30 01:29:30;;;;;;;21.43;12.17;;;;;;;;;;4964273;28;20549;-64
2023/01/30 01:31:57;;;;;;;17.00;9.33;;;;;;;;;;5005963;28;20462;-64
2023/01/30 01:34:23;;;;;;;15.00;8.50;;;;;;;;;;4992676;28;20967;-64
2023/01/30 01:37:08;;;;;;;15.93;7.67;;;;;;;;;;4984523;28;20450;-63
2023/01/30 01:42:38;;;;;;;12.23;7.27;;;;;;;;;;4966197;28;20453;-64
2023/01/30 02:16:56;;;;;;;14.87;8.20;;;;;;;;;;4982487;28;20457;-65
2023/01/30 02:19:35;;;;;;;18.73;10.47;;;;;;;;;;4984459;28;20552;-65
2023/01/30 02:22:14;;;;;;;16.30;9.30;;;;;;;;;;4983490;28;20443;-65
2023/01/30 02:25:13;;;;;;;15.77;8.93;;;;;;;;;;4965848;28;20330;-65
2023/01/30 02:27:40;;;;;;;14.27;7.50;;;;;;;;;;4923548;28;20458;-65
2023/01/30 02:30:47;;;;;;;12.40;6.80;;;;;;;;;;4965261;28;20453;-65
2023/01/30 02:33:17;;;;;;;19.43;9.73;;;;;;;;;;4964437;28;20854;-65
2023/01/30 02:35:45;;;;;;;18.80;10.37;;;;;;;;;;4975242;28;20471;-64
2023/01/30 02:38:18;;;;;;;20.13;8.87;;;;;;;;;;4982051;28;20977;-63
2023/01/30 02:40:51;;;;;;;20.03;11.37;;;;;;;;;;4982492;28;20473;-63
2023/01/30 02:43:33;;;;;;;16.50;9.40;;;;;;;;;;4949811;28;20485;-65
2023/01/30 02:46:19;;;;;;;20.37;11.30;;;;;;;;;;4934245;28;20806;-63
2023/01/30 02:48:50;;;;;;;16.77;10.53;;;;;;;;;;4958551;28;20473;-65
2023/01/30 02:51:37;;;;;;;19.70;11.10;;;;;;;;;;4956591;28;20450;-66
2023/01/30 02:54:07;;;;;;;11.60;6.77;;;;;;;;;;4965174;28;20774;-66
2023/01/30 02:56:46;;;;;;;15.23;8.63;;;;;;;;;;4964386;28;21001;-66
2023/01/30 02:59:13;;;;;;;11.77;6.47;;;;;;;;;;4964410;28;20804;-66
2023/01/30 03:01:40;;;;;;;13.43;7.60;;;;;;;;;;4950377;28;23797;-65
2023/01/30 03:04:10;;;;;;;20.73;12.00;;;;;;;;;;4963324;28;20464;-65
2023/01/30 03:06:42;;;;;;;17.13;7.97;;;;;;;;;;4964900;28;20547;-66
2023/01/30 03:09:09;;;;;;;19.20;9.70;;;;;;;;;;4964374;28;20606;-63
2023/01/30 03:11:56;;;;;;;12.00;6.57;;;;;;;;;;4966533;28;20475;-66
2023/01/30 03:14:23;;;;;;;13.90;7.43;;;;;;;;;;4919760;28;20472;-63
2023/01/30 03:16:50;;;;;;;9.63;5.27;;;;;;;;;;4955930;28;20462;-63
2023/01/30 03:19:17;;;;;;;10.70;5.57;;;;;;;;;;4948645;28;20530;-64
2023/01/30 03:22:01;;;;;;;8.50;4.73;;;;;;;;;;4962103;28;21329;-65
2023/01/30 03:24:29;;;;;;;8.57;5.23;;;;;;;;;;4963883;28;20942;-65
2023/01/30 03:27:13;;;;;;;11.63;7.43;;;;;;;;;;4961830;28;20442;-66
2023/01/30 03:29:40;;;;;;;11.47;4.97;;;;;;;;;;4963780;28;20534;-65
2023/01/30 03:32:24;;;;;;;6.90;4.17;;;;;;;;;;4964325;28;20434;-66
2023/01/30 03:34:51;;;;;;;11.70;6.23;;;;;;;;;;4964162;28;20989;-66
2023/01/30 03:37:35;;;;;;;8.93;3.90;;;;;;;;;;4964673;28;20216;-64
2023/01/30 03:40:02;;;;;;;6.03;4.47;;;;;;;;;;4982591;28;20545;-65
2023/01/30 03:42:30;;;;;;;11.00;7.20;;;;;;;;;;4962867;28;20453;-65
2023/01/30 03:44:57;;;;;;;10.33;5.37;;;;;;;;;;4983146;28;20970;-63
2023/01/30 03:47:24;;;;;;;6.37;3.53;;;;;;;;;;4963104;28;20538;-63
2023/01/30 03:49:51;;;;;;;7.73;5.43;;;;;;;;;;4962826;28;20886;-62
2023/01/30 03:52:19;;;;;;;10.53;6.40;;;;;;;;;;4982731;28;20475;-64
2023/01/30 03:54:45;;;;;;;6.67;4.37;;;;;;;;;;4960341;28;20460;-63
2023/01/30 03:57:13;;;;;;;5.73;3.67;;;;;;;;;;4965293;28;20555;-61
2023/01/30 03:59:40;;;;;;;9.13;6.23;;;;;;;;;;4931770;28;20566;-62
2023/01/30 04:02:09;;;;;;;8.57;4.23;;;;;;;;;;4965475;28;20533;-63
2023/01/30 04:04:56;;;;;;;6.23;3.47;;;;;;;;;;4963372;28;20447;-65
2023/01/30 04:07:23;;;;;;;9.97;5.83;;;;;;;;;;4965560;28;20475;-62
2023/01/30 04:10:08;;;;;;;7.33;4.17;;;;;;;;;;4947555;28;20461;-62
2023/01/30 04:12:35;;;;;;;5.97;3.27;;;;;;;;;;4982159;28;20620;-64
2023/01/30 04:15:02;;;;;;;5.83;3.87;;;;;;;;;;4983339;28;20556;-63
2023/01/30 04:18:01;;;;;;;6.70;4.20;;;;;;;;;;4971745;28;20516;-62
2023/01/30 04:20:54;;;;;;;7.17;4.27;;;;;;;;;;4985115;28;20450;-62
2023/01/30 04:23:28;;;;;;;4.23;2.77;;;;;;;;;;4968130;28;20485;-62
2023/01/30 04:25:55;;;;;;;7.30;4.87;;;;;;;;;;4984973;28;20514;-63
2023/01/30 04:28:24;;;;;;;5.60;2.63;;;;;;;;;;4969833;28;20498;-62
2023/01/30 04:30:52;;;;;;;5.43;3.80;;;;;;;;;;4951893;28;20462;-62
2023/01/30 04:33:42;;;;;;;5.33;3.50;;;;;;;;;;4954375;28;20479;-62
2023/01/30 04:36:11;;;;;;;4.33;2.90;;;;;;;;;;4982945;28;20241;-62
2023/01/30 04:38:39;;;;;;;5.30;3.30;;;;;;;;;;4964076;28;20465;-62
2023/01/30 04:41:06;;;;;;;4.20;2.60;;;;;;;;;;4960516;28;20224;-63
2023/01/30 04:43:37;;;;;;;4.13;2.87;;;;;;;;;;4948272;28;20460;-62
2023/01/30 04:46:36;;;;;;;5.73;2.80;;;;;;;;;;4932394;28;20355;-63
2023/01/30 04:49:02;;;;;;;5.83;3.50;;;;;;;;;;4967279;28;20936;-62
2023/01/30 04:51:29;;;;;;;5.70;3.83;;;;;;;;;;4950690;28;20462;-62
2023/01/30 04:53:57;;;;;;;4.17;3.27;;;;;;;;;;4967833;28;20505;-63
2023/01/30 04:56:24;;;;;;;6.30;3.30;;;;;;;;;;4969389;28;20456;-64
2023/01/30 04:58:51;;;;;;;5.37;3.67;;;;;;;;;;4947458;28;20969;-65
2023/01/30 05:01:22;;;;;;;3.80;2.40;;;;;;;;;;4950118;28;20463;-64
2023/01/30 05:03:50;;;;;;;7.20;2.83;;;;;;;;;;4948257;28;20456;-63
2023/01/30 05:06:16;;;;;;;4.23;2.40;;;;;;;;;;4980921;28;20518;-66
2023/01/30 05:08:43;;;;;;;3.77;2.87;;;;;;;;;;4986118;28;20265;-63
2023/01/30 05:11:12;;;;;;;5.13;3.17;;;;;;;;;;4967624;28;20471;-65
2023/01/30 05:13:38;;;;;;;5.57;3.20;;;;;;;;;;4985126;28;20464;-64
2023/01/30 05:16:05;;;;;;;3.50;2.43;;;;;;;;;;4995786;28;20453;-64
2023/01/30 05:18:32;;;;;;;5.47;3.43;;;;;;;;;;4988479;28;20550;-64
2023/01/30 05:21:03;;;;;;;3.97;2.30;;;;;;;;;;4984872;28;20326;-64
2023/01/30 05:23:30;;;;;;;4.57;2.97;;;;;;;;;;4982821;28;20461;-65
2023/01/30 05:25:56;;;;;;;5.60;3.30;;;;;;;;;;4985506;28;20590;-65
2023/01/30 05:28:23;;;;;;;3.73;2.40;;;;;;;;;;4984357;28;20559;-67
2023/01/30 05:30:49;;;;;;;3.70;2.93;;;;;;;;;;4970396;28;20570;-64
2023/01/30 05:33:16;;;;;;;2.83;2.03;;;;;;;;;;4973075;28;231272;-64
2023/01/30 05:35:46;;;;;;;5.47;2.27;;;;;;;;;;4965511;28;20458;-65
2023/01/30 05:38:13;;;;;;;6.13;2.17;;;;;;;;;;4980215;28;20265;-66
2023/01/30 05:40:40;;;;;;;4.20;2.30;;;;;;;;;;4965647;28;20459;-63
2023/01/30 05:43:06;;;;;;;4.87;3.30;;;;;;;;;;4979105;28;20467;-65
2023/01/30 05:45:33;;;;;;;3.07;2.03;;;;;;;;;;4982717;28;20820;-65
2023/01/30 05:48:00;;;;;;;3.70;2.17;;;;;;;;;;4983822;28;21003;-65
2023/01/30 05:50:27;;;;;;;3.00;2.03;;;;;;;;;;4984968;28;21322;-67
2023/01/30 05:52:54;;;;;;;5.57;3.13;;;;;;;;;;4983899;28;20493;-65
2023/01/30 05:55:20;;;;;;;4.33;2.53;;;;;;;;;;4983248;28;20529;-65
2023/01/30 05:58:05;;;;;;;3.33;2.80;;;;;;;;;;4964290;28;20823;-65
2023/01/30 06:00:31;;;;;;;3.23;2.47;;;;;;;;;;4982571;28;21035;-67
2023/01/30 06:02:59;;;;;;;4.30;2.50;;;;;;;;;;4987550;28;20866;-65
2023/01/30 06:05:25;;;;;;;5.43;3.07;;;;;;;;;;4984301;28;20484;-65
2023/01/30 06:07:52;;;;;;;4.77;3.13;;;;;;;;;;4979537;28;20583;-65
2023/01/30 06:10:19;;;;;;;4.83;3.40;;;;;;;;;;4973603;28;20525;-65
2023/01/30 06:12:45;;;;;;;4.43;3.10;;;;;;;;;;4980746;28;20574;-66
2023/01/30 06:15:12;;;;;;;3.63;1.97;;;;;;;;;;4978579;28;20458;-65
2023/01/30 06:17:42;;;;;;;5.63;3.57;;;;;;;;;;4974051;28;20529;-64
2023/01/30 06:20:09;;;;;;;4.97;2.73;;;;;;;;;;4978564;28;20458;-64
2023/01/30 06:22:36;;;;;;;5.37;2.97;;;;;;;;;;4982745;28;20521;-65
2023/01/30 06:25:03;;;;;;;4.90;2.73;;;;;;;;;;4981477;28;20458;-64
2023/01/30 06:27:30;;;;;;;5.23;3.47;;;;;;;;;;4985053;28;20542;-63
2023/01/30 06:29:57;;;;;;;6.27;3.57;;;;;;;;;;4982321;28;20462;-64
2023/01/30 06:32:23;;;;;;;3.27;1.67;;;;;;;;;;4985179;28;20494;-65
2023/01/30 06:34:50;;;;;;;5.83;2.77;;;;;;;;;;4978437;28;20466;-65
2023/01/30 06:37:16;;;;;;;5.63;3.57;;;;;;;;;;4982965;28;20969;-65
2023/01/30 06:40:00;;;;;;;3.30;2.17;;;;;;;;;;4980128;28;20795;-65
2023/01/30 06:42:27;;;;;;;3.07;2.07;;;;;;;;;;4985148;28;20467;-65
2023/01/30 06:44:54;;;;;;;3.17;1.63;;;;;;;;;;4983290;28;20467;-65
2023/01/30 06:47:21;;;;;;;5.63;2.77;;;;;;;;;;4984619;28;20466;-64
2023/01/30 06:49:48;;;;;;;5.83;3.80;;;;;;;;;;4972479;28;20233;-66
2023/01/30 06:52:14;;;;;;;5.20;3.30;;;;;;;;;;4980480;28;20547;-64
2023/01/30 06:54:41;;;;;;;3.13;2.60;;;;;;;;;;4979153;28;20455;-64
2023/01/30 06:57:08;;;;;;;3.13;2.13;;;;;;;;;;4981483;28;20538;-64
2023/01/30 06:59:35;;;;;;;5.50;3.67;;;;;;;;;;4977311;28;20979;-65
2023/01/30 07:02:01;;;;;;;2.37;1.60;;;;;;;;;;4981104;28;20564;-64
2023/01/30 07:04:28;;;;;;;5.03;2.40;;;;;;;;;;4979013;28;20242;-64
2023/01/30 07:06:55;;;;;;;2.17;1.77;;;;;;;;;;4980906;28;20462;-64
2023/01/30 07:09:22;;;;;;;4.40;3.00;;;;;;;;;;4977660;28;20480;-66
2023/01/30 07:11:49;;;;;;;4.27;1.73;;;;;;;;;;4980129;28;20463;-65
2023/01/30 07:14:34;;;;;;;5.27;3.33;;;;;;;;;;4978231;28;20458;-65
2023/01/30 07:17:00;;;;;;;5.83;3.13;;;;;;;;;;4981736;28;20518;-65
2023/01/30 07:19:44;;;;;;;3.83;2.33;;;;;;;;;;4977518;28;21122;-65
2023/01/30 07:22:11;;;;;;;6.43;4.00;;;;;;;;;;4982271;28;20966;-66
2023/01/30 07:24:38;;;;;;;3.13;2.30;;;;;;;;;;4979595;28;20462;-66
2023/01/30 07:27:06;;;;;;;3.07;2.20;;;;;;;;;;4978935;28;20231;-64
2023/01/30 07:29:35;;;;;;;4.43;3.23;;;;;;;;;;4978889;28;20450;-65
2023/01/30 07:32:02;;;;;;;2.70;1.80;;;;;;;;;;4979766;28;20597;-64
2023/01/30 07:34:29;;;;;;;7.90;3.40;;;;;;;;;;4980860;28;20462;-62
2023/01/30 07:36:55;;;;;;;5.80;2.43;;;;;;;;;;4979621;28;21008;-62
2023/01/30 07:39:22;;;;;;;4.57;2.67;;;;;;;;;;4964473;28;20527;-66
2023/01/30 07:41:49;;;;;;;3.20;2.03;;;;;;;;;;4976543;28;20458;-62
2023/01/30 07:44:16;;;;;;;3.40;2.00;;;;;;;;;;4964758;28;20455;-62
2023/01/30 07:46:43;;;;;;;5.10;2.60;;;;;;;;;;4979575;28;20458;-63
2023/01/30 07:49:09;;;;;;;4.80;1.87;;;;;;;;;;4980647;28;20475;-62
2023/01/30 07:51:36;;;;;;;4.50;3.27;;;;;;;;;;4981178;28;20464;-65
2023/01/30 07:54:03;;;;;;;3.77;2.40;;;;;;;;;;4984483;28;20478;-64
2023/01/30 07:56:29;;;;;;;4.37;3.13;;;;;;;;;;4972451;28;20983;-66
2023/01/30 07:58:56;;;;;;;3.90;2.13;;;;;;;;;;4983905;28;20473;-65
2023/01/30 08:01:23;;;;;;;3.50;2.20;;;;;;;;;;4981291;28;20791;-67
2023/01/30 08:03:50;;;;;;;5.93;3.10;;;;;;;;;;4964826;28;20812;-65
2023/01/30 08:06:16;;;;;;;3.53;2.20;;;;;;;;;;4980327;28;20505;-65
2023/01/30 08:08:45;;;;;;;3.80;2.13;;;;;;;;;;4964761;28;20466;-64
2023/01/30 08:11:18;;;;;;;3.37;2.07;;;;;;;;;;4982862;28;20455;-64
2023/01/30 08:14:02;;;;;;;2.73;1.83;;;;;;;;;;4984850;28;20463;-63
2023/01/30 08:16:31;;;;;;;4.83;3.10;;;;;;;;;;4982799;28;20465;-65
2023/01/30 08:18:58;;;;;;;3.47;2.27;;;;;;;;;;4983532;28;20223;-64
2023/01/30 08:21:24;;;;;;;3.23;2.57;;;;;;;;;;4963062;28;20470;-64
2023/01/30 08:23:51;;;;;;;5.33;2.13;;;;;;;;;;4974137;28;20466;-66
2023/01/30 08:26:35;;;;;;;3.70;2.50;;;;;;;;;;4976070;28;20946;-65
2023/01/30 08:29:02;;;;;;;3.53;2.60;;;;;;;;;;4983477;28;20471;-65
2023/01/30 08:31:29;;;;;;;3.50;2.30;;;;;;;;;;4950088;28;20554;-65
2023/01/30 08:33:55;;;;;;;4.30;2.10;;;;;;;;;;4983406;28;20474;-64
2023/01/30 08:36:22;;;;;;;3.43;2.37;;;;;;;;;;4981302;28;20240;-66
2023/01/30 08:38:48;;;;;;;5.17;2.97;;;;;;;;;;4982628;28;20862;-64
2023/01/30 08:41:15;;;;;;;3.30;2.20;;;;;;;;;;4980362;28;20501;-64
2023/01/30 08:43:42;;;;;;;4.07;2.80;;;;;;;;;;4983574;28;20231;-66
2023/01/30 08:46:09;;;;;;;3.23;2.10;;;;;;;;;;4979867;28;20497;-65
2023/01/30 08:48:39;;;;;;;3.93;2.47;;;;;;;;;;4983407;28;20478;-65
2023/01/30 08:51:15;;;;;;;2.80;1.80;;;;;;;;;;4967489;28;20455;-66
2023/01/30 08:53:59;;;;;;;4.70;2.70;;;;;;;;;;4968052;28;20466;-65
2023/01/30 08:56:26;;;;;;;4.63;2.53;;;;;;;;;;4954761;28;20453;-66
2023/01/30 08:58:53;;;;;;;5.43;2.77;;;;;;;;;;4983436;28;20239;-66
2023/01/30 09:01:19;;;;;;;3.87;2.77;;;;;;;;;;4981438;28;21056;-66
2023/01/30 09:03:46;;;;;;;4.30;2.37;;;;;;;;;;4981529;28;20945;-65
2023/01/30 09:06:13;;;;;;;4.87;3.00;;;;;;;;;;4981147;28;20486;-65
2023/01/30 09:08:40;;;;;;;3.70;2.43;;;;;;;;;;4982518;28;20468;-65
2023/01/30 09:11:07;;;;;;;6.93;3.03;;;;;;;;;;4979903;28;20468;-65
2023/01/30 09:13:33;;;;;;;10.87;4.97;;;;;;;;;;4982643;28;20471;-65
2023/01/30 09:16:00;;;;;;;4.77;2.50;;;;;;;;;;4980396;28;20244;-64
2023/01/30 09:18:27;;;;;;;6.93;4.10;;;;;;;;;;4982771;28;20466;-65
2023/01/30 09:21:01;;;;;;;5.43;2.47;;;;;;;;;;4978695;28;21235;-65
2023/01/30 09:23:30;;;;;;;9.90;2.37;;;;;;;;;;4980790;28;20455;-65
2023/01/30 09:25:59;;;;;;;9.27;4.60;;;;;;;;;;4982467;28;20491;-65
2023/01/30 09:28:25;;;;;;;5.97;4.47;;;;;;;;;;4980951;28;20537;-65
2023/01/30 09:30:52;;;;;;;10.90;3.97;;;;;;;;;;4965111;28;20459;-64
2023/01/30 09:33:19;;;;;;;6.20;3.00;;;;;;;;;;4979229;28;20453;-64
2023/01/30 09:35:46;;;;;;;11.40;4.27;;;;;;;;;;4982709;28;20469;-64
2023/01/30 09:38:13;;;;;;;8.90;3.60;;;;;;;;;;4979748;28;20335;-64
2023/01/30 09:40:45;;;;;;;7.97;4.33;;;;;;;;;;4992264;28;20469;-65
2023/01/30 09:43:30;;;;;;;6.13;2.93;;;;;;;;;;4948673;28;20471;-65
2023/01/30 09:46:05;;;;;;;10.07;3.43;;;;;;;;;;4984642;28;20462;-63
2023/01/30 09:48:52;;;;;;;6.17;3.17;;;;;;;;;;4989908;28;20472;-64
2023/01/30 09:51:54;;;;;;;8.27;3.20;;;;;;;;;;4921825;28;20498;-64
2023/01/30 09:54:35;;;;;;;9.33;3.80;;;;;;;;;;4878107;29;20259;-65
2023/01/30 09:57:15;;;;;;;9.67;3.33;;;;;;;;;;4944845;28;20461;-65
2023/01/30 09:59:53;;;;;;;9.77;3.80;;;;;;;;;;4966147;28;20243;-65
2023/01/30 10:02:23;;;;;;;8.33;3.53;;;;;;;;;;4974970;28;20479;-64
2023/01/30 10:04:51;;;;;;;10.90;4.00;;;;;;;;;;4962421;28;20455;-64
2023/01/30 10:07:30;;;;;;;10.33;3.20;;;;;;;;;;4964001;28;20817;-65
2023/01/30 10:10:03;;;;;;;8.33;3.27;;;;;;;;;;4979165;28;20224;-65
2023/01/30 10:12:42;;;;;;;7.50;2.60;;;;;;;;;;4980435;28;20298;-64
2023/01/30 10:15:21;;;;;;;8.97;3.23;;;;;;;;;;4962359;28;20247;-65
2023/01/30 10:18:00;;;;;;;7.57;3.17;;;;;;;;;;4973069;28;20453;-63
2023/01/30 10:20:45;;;;;;;7.97;3.40;;;;;;;;;;4972355;28;20234;-64
2023/01/30 10:23:15;;;;;;;9.57;4.03;;;;;;;;;;4980561;28;20568;-64
2023/01/30 10:25:47;;;;;;;5.23;2.17;;;;;;;;;;4980003;28;20242;-63
2023/01/30 10:28:20;;;;;;;8.83;3.20;;;;;;;;;;4979748;28;20234;-64
2023/01/30 10:30:48;;;;;;;8.60;3.10;;;;;;;;;;4979926;28;20599;-64
2023/01/30 10:33:18;;;;;;;6.37;2.70;;;;;;;;;;4964229;28;20236;-66
2023/01/30 10:35:44;;;;;;;3.67;1.50;;;;;;;;;;4961854;28;20220;-63
2023/01/30 10:38:15;;;;;;;7.63;2.57;;;;;;;;;;4964277;28;20228;-64
2023/01/30 10:40:43;;;;;;;4.73;1.50;;;;;;;;;;4979610;28;20577;-64
2023/01/30 10:43:27;;;;;;;5.00;2.40;;;;;;;;;;4979330;28;20238;-64
2023/01/30 10:45:59;;;;;;;5.27;1.80;;;;;;;;;;4963072;28;20463;-64
2023/01/30 10:48:42;;;;;;;4.63;2.37;;;;;;;;;;4977599;28;20455;-64
2023/01/30 10:51:14;;;;;;;6.53;2.00;;;;;;;;;;4976521;28;20454;-63
2023/01/30 10:53:42;;;;;;;3.47;1.57;;;;;;;;;;4960862;28;20458;-64
2023/01/30 10:56:17;;;;;;;2.60;1.53;;;;;;;;;;4962052;28;20502;-65
2023/01/30 10:59:04;;;;;;;3.53;1.60;;;;;;;;;;4967593;28;20451;-64
2023/01/30 11:01:31;;;;;;;4.73;1.77;;;;;;;;;;4962266;28;20920;-65
2023/01/30 11:04:01;;;;;;;3.97;2.00;;;;;;;;;;4962472;28;20455;-64
2023/01/30 11:06:28;;;;;;;6.13;2.80;;;;;;;;;;4962046;28;20601;-65
2023/01/30 11:09:13;;;;;;;8.93;2.73;;;;;;;;;;4964669;28;20994;-65
2023/01/30 11:11:50;;;;;;;7.60;2.10;;;;;;;;;;4979382;28;20467;-64
2023/01/30 11:14:17;;;;;;;6.77;2.60;;;;;;;;;;4977619;28;20310;-64
2023/01/30 11:16:50;;;;;;;7.63;2.60;;;;;;;;;;4978696;28;20985;-64
2023/01/30 11:19:18;;;;;;;8.27;2.30;;;;;;;;;;4945988;28;20462;-66
2023/01/30 11:21:54;;;;;;;11.93;2.47;;;;;;;;;;4973104;28;20661;-66
2023/01/30 11:24:44;;;;;;;9.00;2.63;;;;;;;;;;4962710;28;20227;-64
2023/01/30 11:27:15;;;;;;;12.00;3.17;;;;;;;;;;4967424;28;20455;-65
2023/01/30 11:30:03;;;;;;;9.80;3.17;;;;;;;;;;4969542;28;20467;-63
2023/01/30 11:32:30;;;;;;;7.47;2.60;;;;;;;;;;4978151;28;20556;-65
2023/01/30 11:35:19;;;;;;;6.77;2.07;;;;;;;;;;4977753;28;20474;-64
2023/01/30 11:37:46;;;;;;;9.60;3.27;;;;;;;;;;4978297;28;20306;-63
2023/01/30 11:40:15;;;;;;;5.90;1.87;;;;;;;;;;4962421;28;20977;-64
2023/01/30 11:42:43;;;;;;;10.60;3.57;;;;;;;;;;4984203;28;20240;-64
2023/01/30 11:45:10;;;;;;;5.07;1.43;;;;;;;;;;4955462;28;20537;-64
2023/01/30 11:47:47;;;;;;;12.63;3.27;;;;;;;;;;4959351;28;20227;-63
2023/01/30 11:50:25;;;;;;;7.27;2.30;;;;;;;;;;4962340;28;20248;-64
2023/01/30 11:52:59;;;;;;;9.17;2.93;;;;;;;;;;4956818;28;20223;-65
2023/01/30 11:55:25;;;;;;;12.23;2.13;;;;;;;;;;4960682;28;20610;-65
2023/01/30 11:57:53;;;;;;;8.80;2.13;;;;;;;;;;4962004;28;20294;-64
2023/01/30 12:00:23;;;;;;;16.53;2.50;;;;;;;;;;4951402;28;20255;-65
2023/01/30 12:02:51;;;;;;;16.10;2.40;;;;;;;;;;4963070;28;20370;-64
2023/01/30 12:05:27;;;;;;;10.13;2.03;;;;;;;;;;4978259;28;20650;-65
2023/01/30 12:07:53;;;;;;;13.17;1.93;;;;;;;;;;4957771;28;20256;-63
2023/01/30 12:10:24;;;;;;;12.60;2.60;;;;;;;;;;4961984;28;20232;-65
2023/01/30 12:12:51;;;;;;;13.53;1.83;;;;;;;;;;4978078;28;20239;-65
2023/01/30 12:15:25;;;;;;;14.77;2.40;;;;;;;;;;4977629;28;20321;-66
2023/01/30 12:18:06;;;;;;;10.07;2.40;;;;;;;;;;4977245;28;20223;-64
2023/01/30 12:20:35;;;;;;;5.23;1.30;;;;;;;;;;4971022;28;20378;-64
2023/01/30 12:23:31;;;;;;;8.93;2.00;;;;;;;;;;4964817;28;21827;-64
2023/01/30 12:26:00;;;;;;;9.37;2.63;;;;;;;;;;4978770;28;20231;-64
2023/01/30 12:28:49;;;;;;;12.67;2.67;;;;;;;;;;4962392;28;20739;-64
2023/01/30 12:31:18;;;;;;;5.83;1.70;;;;;;;;;;4976015;28;20236;-62
2023/01/30 12:33:46;;;;;;;8.87;1.97;;;;;;;;;;4974884;28;20235;-63
2023/01/30 12:36:13;;;;;;;10.77;1.60;;;;;;;;;;4955079;28;20229;-63
2023/01/30 12:38:54;;;;;;;10.30;2.37;;;;;;;;;;4983638;28;20568;-63
2023/01/30 12:41:42;;;;;;;13.30;2.00;;;;;;;;;;4975267;28;20237;-63
2023/01/30 12:44:13;;;;;;;13.33;1.90;;;;;;;;;;4981493;28;21005;-64
2023/01/30 12:46:40;;;;;;;5.20;1.47;;;;;;;;;;4980671;28;20261;-63
2023/01/30 12:49:17;;;;;;;6.93;1.47;;;;;;;;;;4970701;28;20223;-64
2023/01/30 12:51:48;;;;;;;6.43;2.10;;;;;;;;;;4955172;28;20517;-63
2023/01/30 12:54:17;;;;;;;9.47;1.63;;;;;;;;;;4982219;28;20236;-65
2023/01/30 12:56:49;;;;;;;12.83;1.97;;;;;;;;;;4965160;28;20226;-66
2023/01/30 12:59:25;;;;;;;10.30;1.80;;;;;;;;;;4973579;28;20462;-63
2023/01/30 13:02:12;;;;;;;11.33;1.90;;;;;;;;;;4973847;28;20281;-65
2023/01/30 13:04:49;;;;;;;13.13;1.80;;;;;;;;;;4981256;28;20278;-62
2023/01/30 13:07:46;;;;;;;10.90;2.23;;;;;;;;;;4971820;28;23378;-64
2023/01/30 13:10:22;;;;;;;15.43;2.60;;;;;;;;;;4971089;28;20236;-63
2023/01/30 13:13:28;;;;;;;9.97;2.17;;;;;;;;;;4980624;28;20470;-64
2023/01/30 13:16:13;;;;;;;9.70;2.20;;;;;;;;;;4979059;28;20545;-64
2023/01/30 13:18:40;;;;;;;9.93;2.17;;;;;;;;;;4961617;28;20347;-64
2023/01/30 13:21:12;;;;;;;11.30;2.07;;;;;;;;;;4977828;28;20462;-67
2023/01/30 13:23:58;;;;;;;7.73;2.00;;;;;;;;;;4963475;28;20550;-66
2023/01/30 13:26:35;;;;;;;9.90;2.33;;;;;;;;;;4979581;28;20311;-66
2023/01/30 13:29:10;;;;;;;8.27;2.27;;;;;;;;;;4966169;28;20546;-67
2023/01/30 13:31:38;;;;;;;5.77;1.70;;;;;;;;;;4961453;28;20462;-66
2023/01/30 13:34:12;;;;;;;3.23;1.20;;;;;;;;;;4958539;28;21009;-67
2023/01/30 13:36:41;;;;;;;13.10;2.77;;;;;;;;;;4972013;28;20227;-67
2023/01/30 13:39:15;;;;;;;7.33;2.10;;;;;;;;;;4981026;28;20442;-67
2023/01/30 13:41:44;;;;;;;12.77;2.27;;;;;;;;;;4964172;28;20224;-66
2023/01/30 13:44:16;;;;;;;7.53;1.50;;;;;;;;;;4980441;28;20479;-66
2023/01/30 13:46:43;;;;;;;7.67;2.07;;;;;;;;;;4979171;28;20470;-67
2023/01/30 13:49:28;;;;;;;10.63;3.30;;;;;;;;;;4982457;28;21052;-67
2023/01/30 13:52:22;;;;;;;23.07;5.67;;;;;;;;;;4980500;28;20505;-66
2023/01/30 13:54:52;;;;;;;5.53;1.77;;;;;;;;;;4981282;28;20800;-65
2023/01/30 13:57:18;;;;;;;9.47;2.43;;;;;;;;;;4980925;28;21049;-65
2023/01/30 13:59:45;;;;;;;6.73;1.63;;;;;;;;;;4971079;28;20557;-65
2023/01/30 14:02:19;;;;;;;8.83;2.20;;;;;;;;;;4981190;28;20459;-66
2023/01/30 14:04:47;;;;;;;5.03;2.10;;;;;;;;;;4980458;28;20455;-63
2023/01/30 14:07:13;;;;;;;5.97;1.97;;;;;;;;;;4980651;28;20469;-66
2023/01/30 14:09:43;;;;;;;8.63;1.77;;;;;;;;;;4980546;28;20471;-65
2023/01/30 14:12:16;;;;;;;3.93;1.40;;;;;;;;;;4979475;28;20454;-65
2023/01/30 14:14:43;;;;;;;8.50;1.57;;;;;;;;;;4980038;28;20462;-65
2023/01/30 14:17:11;;;;;;;6.27;1.30;;;;;;;;;;4964827;28;20451;-64
2023/01/30 14:19:44;;;;;;;5.80;1.83;;;;;;;;;;4979647;28;20521;-65
2023/01/30 14:22:24;;;;;;;8.03;1.87;;;;;;;;;;4977524;28;21120;-65
2023/01/30 14:25:09;;;;;;;9.97;2.10;;;;;;;;;;4963265;28;20466;-64
2023/01/30 14:27:36;;;;;;;8.67;2.77;;;;;;;;;;4969059;28;20452;-64
2023/01/30 14:30:23;;;;;;;5.13;1.33;;;;;;;;;;4980189;28;20487;-63
2023/01/30 14:32:52;;;;;;;7.90;1.90;;;;;;;;;;4979718;28;20455;-64
2023/01/30 14:35:19;;;;;;;9.60;2.40;;;;;;;;;;4982127;28;20243;-63
2023/01/30 14:37:51;;;;;;;9.27;2.27;;;;;;;;;;4967595;28;20494;-64
2023/01/30 14:40:20;;;;;;;11.10;2.27;;;;;;;;;;4975990;28;20838;-64
2023/01/30 14:43:05;;;;;;;6.87;1.20;;;;;;;;;;4978971;28;20475;-64
2023/01/30 14:45:44;;;;;;;3.50;1.10;;;;;;;;;;4979591;28;20234;-64
2023/01/30 14:48:32;;;;;;;10.10;2.13;;;;;;;;;;4973638;28;21012;-64
2023/01/30 14:51:09;;;;;;;8.53;2.13;;;;;;;;;;4960341;28;20467;-63
2023/01/30 14:53:47;;;;;;;3.60;1.20;;;;;;;;;;4978555;28;20458;-65
2023/01/30 14:56:14;;;;;;;13.43;2.50;;;;;;;;;;4980259;28;20519;-65
2023/01/30 14:59:00;;;;;;;6.90;1.93;;;;;;;;;;4968998;28;20466;-65
2023/01/30 15:01:26;;;;;;;4.43;1.30;;;;;;;;;;4977933;28;20470;-64
2023/01/30 15:03:53;;;;;;;12.70;2.40;;;;;;;;;;4981325;28;20275;-64
2023/01/30 15:06:25;;;;;;;12.87;2.80;;;;;;;;;;4978078;28;20702;-66
2023/01/30 15:08:51;;;;;;;10.10;2.53;;;;;;;;;;4978405;28;20469;-64
2023/01/30 15:11:20;;;;;;;6.90;1.70;;;;;;;;;;4980424;28;20986;-64
2023/01/30 15:14:06;;;;;;;4.97;1.83;;;;;;;;;;4961984;28;20239;-65
2023/01/30 15:16:52;;;;;;;6.97;2.37;;;;;;;;;;4962681;28;20458;-65
2023/01/30 15:19:25;;;;;;;5.57;1.90;;;;;;;;;;4979445;28;20941;-65
2023/01/30 15:22:09;;;;;;;7.87;2.43;;;;;;;;;;4971376;28;20961;-64
2023/01/30 15:24:36;;;;;;;6.67;1.67;;;;;;;;;;4977757;28;20509;-65
2023/01/30 15:27:20;;;;;;;8.57;2.03;;;;;;;;;;4978418;28;20465;-65
2023/01/30 15:29:50;;;;;;;7.17;1.77;;;;;;;;;;4980739;28;20235;-62
2023/01/30 15:32:34;;;;;;;10.63;2.30;;;;;;;;;;4977838;28;20780;-64
2023/01/30 15:35:11;;;;;;;7.33;2.20;;;;;;;;;;4978272;28;20529;-63
2023/01/30 15:37:46;;;;;;;6.77;1.80;;;;;;;;;;4982878;28;20463;-63
2023/01/30 15:40:13;;;;;;;9.47;3.40;;;;;;;;;;4978104;28;20234;-64
2023/01/30 15:42:45;;;;;;;7.57;2.37;;;;;;;;;;4981526;28;20463;-64
2023/01/30 15:45:11;;;;;;;4.93;1.77;;;;;;;;;;4982660;28;20764;-65
2023/01/30 15:47:57;;;;;;;5.83;2.40;;;;;;;;;;4984346;28;20462;-63